sensor_id;sensor_type;location;lat;lon;timestamp;pressure;altitude;pressure_sealevel;temperature;humidity
71145;BME280;58812;47.698;17.726;2022-08-21T00:01:17;99868.75;;;17.97;86.71
71145;BME280;58812;47.698;17.726;2022-08-21T00:03:44;99878.53;;;17.98;86.75
71145;BME280;58812;47.698;17.726;2022-08-21T00:06:10;99879.75;;;17.95;86.85
71145;BME280;58812;47.698;17.726;2022-08-21T00:08:35;99876.88;;;17.97;86.86
71145;BME280;58812;47.698;17.726;2022-08-21T00:11:02;99896.44;;;17.99;86.86
71145;BME280;58812;47.698;17.726;2022-08-21T00:13:27;99885.59;;;17.99;86.86
71145;BME280;58812;47.698;17.726;2022-08-21T00:15:53;99886.44;;;17.99;87.01
71145;BME280;58812;47.698;17.726;2022-08-21T00:18:19;99889.59;;;18.03;87.16
71145;BME280;58812;47.698;17.726;2022-08-21T00:20:45;99895.63;;;18.05;86.99
71145;BME280;58812;47.698;17.726;2022-08-21T00:23:11;99887.28;;;18.06;86.73
71145;BME280;58812;47.698;17.726;2022-08-21T00:25:37;99887.91;;;18.08;86.87
71145;BME280;58812;47.698;17.726;2022-08-21T00:28:03;99883.12;;;18.10;86.69
71145;BME280;58812;47.698;17.726;2022-08-21T00:30:30;99884.41;;;18.14;86.66
71145;BME280;58812;47.698;17.726;2022-08-21T00:32:56;99885.88;;;18.17;86.62
71145;BME280;58812;47.698;17.726;2022-08-21T00:35:29;99883.16;;;18.17;86.57
71145;BME280;58812;47.698;17.726;2022-08-21T00:37:55;99868.78;;;18.17;86.80
71145;BME280;58812;47.698;17.726;2022-08-21T00:40:31;99865.22;;;18.16;86.79
71145;BME280;58812;47.698;17.726;2022-08-21T00:42:57;99861.69;;;18.15;86.80
71145;BME280;58812;47.698;17.726;2022-08-21T00:45:24;99859.38;;;18.12;86.93
71145;BME280;58812;47.698;17.726;2022-08-21T00:47:50;99860.41;;;18.11;86.94
71145;BME280;58812;47.698;17.726;2022-08-21T00:50:17;99863.75;;;18.20;86.68
71145;BME280;58812;47.698;17.726;2022-08-21T00:52:43;99857.94;;;18.10;87.26
71145;BME280;58812;47.698;17.726;2022-08-21T00:55:09;99855.22;;;18.10;87.11
71145;BME280;58812;47.698;17.726;2022-08-21T00:57:51;99851.84;;;18.08;87.19
71145;BME280;58812;47.698;17.726;2022-08-21T01:00:20;99832.72;;;18.03;87.32
71145;BME280;58812;47.698;17.726;2022-08-21T01:02:46;99843.31;;;18.04;87.26
71145;BME280;58812;47.698;17.726;2022-08-21T01:05:13;99840.41;;;18.06;87.46
71145;BME280;58812;47.698;17.726;2022-08-21T01:07:39;99838.75;;;18.05;87.44
71145;BME280;58812;47.698;17.726;2022-08-21T01:10:06;99835.19;;;17.98;87.50
71145;BME280;58812;47.698;17.726;2022-08-21T01:12:33;99836.44;;;18.02;87.80
71145;BME280;58812;47.698;17.726;2022-08-21T01:15:01;99831.00;;;18.02;87.48
71145;BME280;58812;47.698;17.726;2022-08-21T01:17:28;99834.37;;;18.04;87.47
71145;BME280;58812;47.698;17.726;2022-08-21T01:19:58;99829.12;;;18.02;87.41
71145;BME280;58812;47.698;17.726;2022-08-21T01:22:23;99822.06;;;18.08;87.33
71145;BME280;58812;47.698;17.726;2022-08-21T01:24:49;99825.59;;;18.02;87.34
71145;BME280;58812;47.698;17.726;2022-08-21T01:27:15;99824.59;;;18.03;87.26
71145;BME280;58812;47.698;17.726;2022-08-21T01:29:56;99817.06;;;18.05;87.27
71145;BME280;58812;47.698;17.726;2022-08-21T01:32:22;99814.97;;;18.07;87.15
71145;BME280;58812;47.698;17.726;2022-08-21T01:34:50;99813.31;;;18.06;86.99
71145;BME280;58812;47.698;17.726;2022-08-21T01:37:16;99818.13;;;18.04;87.23
71145;BME280;58812;47.698;17.726;2022-08-21T01:39:42;99816.63;;;18.01;87.22
71145;BME280;58812;47.698;17.726;2022-08-21T01:42:08;99809.34;;;18.02;86.96
71145;BME280;58812;47.698;17.726;2022-08-21T01:44:34;99804.78;;;18.09;86.80
71145;BME280;58812;47.698;17.726;2022-08-21T01:47:03;99804.78;;;18.09;86.72
71145;BME280;58812;47.698;17.726;2022-08-21T01:49:29;99810.59;;;18.06;86.70
71145;BME280;58812;47.698;17.726;2022-08-21T01:51:54;99805.19;;;18.06;86.63
71145;BME280;58812;47.698;17.726;2022-08-21T01:54:20;99805.19;;;18.06;86.73
71145;BME280;58812;47.698;17.726;2022-08-21T01:56:47;99816.44;;;18.03;86.76
71145;BME280;58812;47.698;17.726;2022-08-21T01:59:14;99820.00;;;17.97;86.92
71145;BME280;58812;47.698;17.726;2022-08-21T02:01:39;99816.84;;;17.93;87.01
71145;BME280;58812;47.698;17.726;2022-08-21T02:04:07;99808.09;;;17.98;86.92
71145;BME280;58812;47.698;17.726;2022-08-21T02:06:34;99806.22;;;17.98;86.90
71145;BME280;58812;47.698;17.726;2022-08-21T02:09:00;99798.50;;;17.95;86.92
71145;BME280;58812;47.698;17.726;2022-08-21T02:11:26;99804.75;;;17.96;86.82
71145;BME280;58812;47.698;17.726;2022-08-21T02:13:51;99790.19;;;17.97;86.58
71145;BME280;58812;47.698;17.726;2022-08-21T02:16:17;99789.53;;;17.95;86.72
71145;BME280;58812;47.698;17.726;2022-08-21T02:18:42;99796.63;;;17.96;86.72
71145;BME280;58812;47.698;17.726;2022-08-21T02:21:09;99789.53;;;17.95;86.50
71145;BME280;58812;47.698;17.726;2022-08-21T02:23:34;99797.69;;;18.01;86.30
71145;BME280;58812;47.698;17.726;2022-08-21T02:26:03;99802.87;;;17.96;86.48
71145;BME280;58812;47.698;17.726;2022-08-21T02:28:30;99801.44;;;18.00;86.32
71145;BME280;58812;47.698;17.726;2022-08-21T02:30:56;99788.31;;;17.97;86.31
71145;BME280;58812;47.698;17.726;2022-08-21T02:33:22;99793.31;;;17.94;86.59
71145;BME280;58812;47.698;17.726;2022-08-21T02:35:48;99790.59;;;18.00;86.30
71145;BME280;58812;47.698;17.726;2022-08-21T02:38:19;99796.22;;;17.99;86.29
71145;BME280;58812;47.698;17.726;2022-08-21T02:40:47;99783.91;;;17.96;86.33
71145;BME280;58812;47.698;17.726;2022-08-21T02:43:14;99782.25;;;17.88;86.62
71145;BME280;58812;47.698;17.726;2022-08-21T02:45:40;99782.03;;;17.90;86.45
71145;BME280;58812;47.698;17.726;2022-08-21T02:48:11;99785.16;;;17.87;86.75
71145;BME280;58812;47.698;17.726;2022-08-21T02:50:48;99789.75;;;17.86;86.70
71145;BME280;58812;47.698;17.726;2022-08-21T02:53:16;99786.00;;;17.87;86.72
71145;BME280;58812;47.698;17.726;2022-08-21T02:55:44;99793.28;;;17.87;86.75
71145;BME280;58812;47.698;17.726;2022-08-21T02:58:09;99786.00;;;17.81;86.88
71145;BME280;58812;47.698;17.726;2022-08-21T03:00:36;99786.41;;;17.84;86.90
71145;BME280;58812;47.698;17.726;2022-08-21T03:03:03;99786.41;;;17.84;86.85
71145;BME280;58812;47.698;17.726;2022-08-21T03:05:29;99783.06;;;17.82;86.99
71145;BME280;58812;47.698;17.726;2022-08-21T03:07:57;99782.84;;;17.77;87.15
71145;BME280;58812;47.698;17.726;2022-08-21T03:10:24;99774.72;;;17.77;87.12
71145;BME280;58812;47.698;17.726;2022-08-21T03:12:50;99791.41;;;17.74;87.15
71145;BME280;58812;47.698;17.726;2022-08-21T03:15:19;99783.62;;;17.71;87.43
71145;BME280;58812;47.698;17.726;2022-08-21T03:17:46;99792.81;;;17.70;87.45
71145;BME280;58812;47.698;17.726;2022-08-21T03:20:13;99789.91;;;17.72;87.29
71145;BME280;58812;47.698;17.726;2022-08-21T03:22:39;99786.75;;;17.68;87.51
71145;BME280;58812;47.698;17.726;2022-08-21T03:25:06;99782.16;;;17.62;87.77
71145;BME280;58812;47.698;17.726;2022-08-21T03:27:31;99786.53;;;17.63;87.78
71145;BME280;58812;47.698;17.726;2022-08-21T03:29:57;99789.88;;;17.65;87.60
71145;BME280;58812;47.698;17.726;2022-08-21T03:32:23;99797.75;;;17.60;87.80
71145;BME280;58812;47.698;17.726;2022-08-21T03:34:48;99798.81;;;17.59;87.98
71145;BME280;58812;47.698;17.726;2022-08-21T03:37:14;99803.59;;;17.57;87.96
71145;BME280;58812;47.698;17.726;2022-08-21T03:39:40;99807.97;;;17.58;88.03
71145;BME280;58812;47.698;17.726;2022-08-21T03:42:07;99803.37;;;17.58;88.02
71145;BME280;58812;47.698;17.726;2022-08-21T03:44:32;99808.19;;;17.63;87.72
71145;BME280;58812;47.698;17.726;2022-08-21T03:46:59;99805.88;;;17.60;87.95
71145;BME280;58812;47.698;17.726;2022-08-21T03:49:25;99813.00;;;17.61;87.81
71145;BME280;58812;47.698;17.726;2022-08-21T03:51:51;99807.56;;;17.61;87.89
71145;BME280;58812;47.698;17.726;2022-08-21T03:54:16;99807.97;;;17.65;87.70
71145;BME280;58812;47.698;17.726;2022-08-21T03:56:42;99809.84;;;17.64;87.71
71145;BME280;58812;47.698;17.726;2022-08-21T03:59:07;99816.91;;;17.58;87.83
71145;BME280;58812;47.698;17.726;2022-08-21T04:01:33;99811.72;;;17.57;87.98
71145;BME280;58812;47.698;17.726;2022-08-21T04:03:59;99819.19;;;17.55;88.20
71145;BME280;58812;47.698;17.726;2022-08-21T04:06:25;99814.22;;;17.58;87.94
71145;BME280;58812;47.698;17.726;2022-08-21T04:08:52;99812.53;;;17.51;88.54
71145;BME280;58812;47.698;17.726;2022-08-21T04:11:18;99812.31;;;17.52;88.52
71145;BME280;58812;47.698;17.726;2022-08-21T04:13:43;99811.88;;;17.49;88.61
71145;BME280;58812;47.698;17.726;2022-08-21T04:16:09;99811.69;;;17.44;89.14
71145;BME280;58812;47.698;17.726;2022-08-21T04:18:34;99813.75;;;17.48;88.91
71145;BME280;58812;47.698;17.726;2022-08-21T04:21:01;99815.63;;;17.48;88.97
71145;BME280;58812;47.698;17.726;2022-08-21T04:23:27;99811.25;;;17.47;89.07
71145;BME280;58812;47.698;17.726;2022-08-21T04:25:54;99813.75;;;17.48;88.98
71145;BME280;58812;47.698;17.726;2022-08-21T04:28:21;99814.59;;;17.49;89.18
71145;BME280;58812;47.698;17.726;2022-08-21T04:30:47;99801.69;;;17.51;89.31
71145;BME280;58812;47.698;17.726;2022-08-21T04:33:13;99801.09;;;17.55;89.38
71145;BME280;58812;47.698;17.726;2022-08-21T04:35:38;99797.53;;;17.55;89.16
71145;BME280;58812;47.698;17.726;2022-08-21T04:38:04;99799.22;;;17.56;89.42
71145;BME280;58812;47.698;17.726;2022-08-21T04:40:29;99794.87;;;17.61;89.20
71145;BME280;58812;47.698;17.726;2022-08-21T04:42:58;99790.91;;;17.64;88.92
71145;BME280;58812;47.698;17.726;2022-08-21T04:45:40;99794.25;;;17.66;89.13
71145;BME280;58812;47.698;17.726;2022-08-21T04:48:08;99799.03;;;17.71;89.09
71145;BME280;58812;47.698;17.726;2022-08-21T04:51:30;99801.19;;;17.75;88.84
71145;BME280;58812;47.698;17.726;2022-08-21T04:53:42;99794.87;;;17.68;89.42
71145;BME280;58812;47.698;17.726;2022-08-21T04:56:20;99797.88;;;17.80;89.22
71145;BME280;58812;47.698;17.726;2022-08-21T04:58:47;99801.19;;;17.82;88.98
71145;BME280;58812;47.698;17.726;2022-08-21T05:01:18;99802.03;;;17.82;89.03
71145;BME280;58812;47.698;17.726;2022-08-21T05:03:47;99813.47;;;17.84;89.03
71145;BME280;58812;47.698;17.726;2022-08-21T05:06:15;99809.09;;;17.83;89.12
71145;BME280;58812;47.698;17.726;2022-08-21T05:08:43;99809.75;;;17.85;89.13
71145;BME280;58812;47.698;17.726;2022-08-21T05:11:10;99818.13;;;17.97;88.84
71145;BME280;58812;47.698;17.726;2022-08-21T05:13:35;99816.03;;;17.99;88.57
71145;BME280;58812;47.698;17.726;2022-08-21T05:16:01;99820.00;;;18.03;88.41
71145;BME280;58812;47.698;17.726;2022-08-21T05:18:26;99817.69;;;18.07;88.39
71145;BME280;58812;47.698;17.726;2022-08-21T05:20:52;99824.38;;;18.24;87.67
71145;BME280;58812;47.698;17.726;2022-08-21T05:23:17;99820.22;;;18.35;87.03
71145;BME280;58812;47.698;17.726;2022-08-21T05:25:42;99834.81;;;18.54;86.22
71145;BME280;58812;47.698;17.726;2022-08-21T05:28:09;99830.66;;;18.51;85.88
71145;BME280;58812;47.698;17.726;2022-08-21T05:30:36;99839.25;;;18.68;85.56
71145;BME280;58812;47.698;17.726;2022-08-21T05:33:03;99837.53;;;18.74;85.40
71145;BME280;58812;47.698;17.726;2022-08-21T05:35:30;99842.75;;;18.62;85.75
71145;BME280;58812;47.698;17.726;2022-08-21T05:37:56;99842.56;;;18.70;85.42
71145;BME280;58812;47.698;17.726;2022-08-21T05:40:22;99845.28;;;18.70;85.73
71145;BME280;58812;47.698;17.726;2022-08-21T05:42:48;99851.09;;;18.54;86.10
71145;BME280;58812;47.698;17.726;2022-08-21T05:45:13;99846.09;;;18.71;85.79
71145;BME280;58812;47.698;17.726;2022-08-21T05:47:39;99846.91;;;18.58;86.00
71145;BME280;58812;47.698;17.726;2022-08-21T05:50:05;99847.56;;;18.73;85.92
71145;BME280;58812;47.698;17.726;2022-08-21T05:52:31;99855.06;;;18.64;86.18
71145;BME280;58812;47.698;17.726;2022-08-21T05:54:56;99850.25;;;18.73;85.68
71145;BME280;58812;47.698;17.726;2022-08-21T05:57:22;99855.69;;;18.73;85.83
71145;BME280;58812;47.698;17.726;2022-08-21T05:59:48;99855.87;;;18.85;85.15
71145;BME280;58812;47.698;17.726;2022-08-21T06:02:13;99853.19;;;18.85;85.38
71145;BME280;58812;47.698;17.726;2022-08-21T06:04:39;99858.81;;;18.83;85.36
71145;BME280;58812;47.698;17.726;2022-08-21T06:07:06;99857.16;;;18.82;84.94
71145;BME280;58812;47.698;17.726;2022-08-21T06:09:32;99852.56;;;18.89;84.86
71145;BME280;58812;47.698;17.726;2022-08-21T06:11:58;99854.41;;;18.95;84.68
71145;BME280;58812;47.698;17.726;2022-08-21T06:14:27;99856.09;;;18.83;85.01
71145;BME280;58812;47.698;17.726;2022-08-21T06:16:52;99849.84;;;18.89;84.84
71145;BME280;58812;47.698;17.726;2022-08-21T06:19:18;99854.03;;;18.92;84.61
71145;BME280;58812;47.698;17.726;2022-08-21T06:21:43;99855.44;;;19.08;84.03
71145;BME280;58812;47.698;17.726;2022-08-21T06:24:09;99853.94;;;19.25;83.03
71145;BME280;58812;47.698;17.726;2022-08-21T06:26:34;99851.41;;;19.37;82.60
71145;BME280;58812;47.698;17.726;2022-08-21T06:28:59;99851.97;;;19.52;81.82
71145;BME280;58812;47.698;17.726;2022-08-21T06:31:26;99860.69;;;19.74;80.77
71145;BME280;58812;47.698;17.726;2022-08-21T06:33:52;99861.28;;;19.83;80.00
71145;BME280;58812;47.698;17.726;2022-08-21T06:36:18;99857.91;;;19.87;79.67
71145;BME280;58812;47.698;17.726;2022-08-21T06:38:45;99864.53;;;19.98;79.35
71145;BME280;58812;47.698;17.726;2022-08-21T06:41:11;99863.28;;;20.00;78.65
71145;BME280;58812;47.698;17.726;2022-08-21T06:43:36;99860.81;;;19.92;78.71
71145;BME280;58812;47.698;17.726;2022-08-21T06:46:02;99852.72;;;20.17;77.62
71145;BME280;58812;47.698;17.726;2022-08-21T06:48:27;99862.66;;;20.30;77.60
71145;BME280;58812;47.698;17.726;2022-08-21T06:50:54;99861.53;;;20.13;78.40
71145;BME280;58812;47.698;17.726;2022-08-21T06:53:21;99862.44;;;20.32;77.14
71145;BME280;58812;47.698;17.726;2022-08-21T06:55:48;99863.72;;;20.61;75.89
71145;BME280;58812;47.698;17.726;2022-08-21T06:58:14;99867.50;;;20.60;75.74
71145;BME280;58812;47.698;17.726;2022-08-21T07:00:43;99856.97;;;20.70;75.48
71145;BME280;58812;47.698;17.726;2022-08-21T07:03:24;99865.25;;;20.50;76.08
71145;BME280;58812;47.698;17.726;2022-08-21T07:05:51;99871.87;;;20.29;76.54
71145;BME280;58812;47.698;17.726;2022-08-21T07:08:17;99862.00;;;21.10;73.63
71145;BME280;58812;47.698;17.726;2022-08-21T07:10:43;99860.62;;;20.82;74.47
71145;BME280;58812;47.698;17.726;2022-08-21T07:13:08;99860.06;;;20.48;75.75
71145;BME280;58812;47.698;17.726;2022-08-21T07:15:34;99859.56;;;20.58;75.53
71145;BME280;58812;47.698;17.726;2022-08-21T07:17:59;99866.94;;;20.44;75.18
71145;BME280;58812;47.698;17.726;2022-08-21T07:20:26;99857.59;;;20.34;75.68
71145;BME280;58812;47.698;17.726;2022-08-21T07:22:52;99862.78;;;20.42;75.88
71145;BME280;58812;47.698;17.726;2022-08-21T07:25:17;99862.78;;;20.48;75.37
71145;BME280;58812;47.698;17.726;2022-08-21T07:27:43;99854.34;;;20.25;75.77
71145;BME280;58812;47.698;17.726;2022-08-21T07:30:08;99857.41;;;20.35;75.68
71145;BME280;58812;47.698;17.726;2022-08-21T07:32:34;99868.50;;;20.65;74.68
71145;BME280;58812;47.698;17.726;2022-08-21T07:34:59;99861.13;;;20.41;75.28
71145;BME280;58812;47.698;17.726;2022-08-21T07:37:25;99858.38;;;20.47;75.22
71145;BME280;58812;47.698;17.726;2022-08-21T07:39:51;99853.81;;;20.41;75.43
71145;BME280;58812;47.698;17.726;2022-08-21T07:42:17;99852.06;;;20.53;74.70
71145;BME280;58812;47.698;17.726;2022-08-21T07:44:42;99851.00;;;20.54;74.54
71145;BME280;58812;47.698;17.726;2022-08-21T07:47:08;99852.19;;;20.65;74.14
71145;BME280;58812;47.698;17.726;2022-08-21T07:49:33;99853.06;;;20.84;73.36
71145;BME280;58812;47.698;17.726;2022-08-21T07:51:59;99855.28;;;20.94;73.33
71145;BME280;58812;47.698;17.726;2022-08-21T07:54:25;99854.28;;;20.88;73.47
71145;BME280;58812;47.698;17.726;2022-08-21T07:56:50;99857.91;;;20.82;73.65
71145;BME280;58812;47.698;17.726;2022-08-21T07:59:16;99849.91;;;20.87;73.39
71145;BME280;58812;47.698;17.726;2022-08-21T08:01:42;99852.19;;;21.08;73.10
71145;BME280;58812;47.698;17.726;2022-08-21T08:04:07;99854.06;;;20.90;73.09
71145;BME280;58812;47.698;17.726;2022-08-21T08:06:33;99855.81;;;21.02;72.87
71145;BME280;58812;47.698;17.726;2022-08-21T08:08:58;99845.22;;;20.94;73.06
71145;BME280;58812;47.698;17.726;2022-08-21T08:11:24;99841.63;;;21.19;72.33
71145;BME280;58812;47.698;17.726;2022-08-21T08:13:51;99842.09;;;21.52;71.04
71145;BME280;58812;47.698;17.726;2022-08-21T08:16:17;99838.28;;;21.72;70.22
71145;BME280;58812;47.698;17.726;2022-08-21T08:18:43;99841.44;;;22.17;68.55
71145;BME280;58812;47.698;17.726;2022-08-21T08:21:10;99826.03;;;22.23;68.47
71145;BME280;58812;47.698;17.726;2022-08-21T08:23:36;99824.06;;;22.30;68.07
71145;BME280;58812;47.698;17.726;2022-08-21T08:26:02;99823.06;;;22.78;67.01
71145;BME280;58812;47.698;17.726;2022-08-21T08:28:31;99818.28;;;22.50;67.61
71145;BME280;58812;47.698;17.726;2022-08-21T08:30:57;99816.69;;;22.19;68.28
71145;BME280;58812;47.698;17.726;2022-08-21T08:33:23;99821.72;;;22.57;67.09
71145;BME280;58812;47.698;17.726;2022-08-21T08:35:50;99826.44;;;22.38;67.71
71145;BME280;58812;47.698;17.726;2022-08-21T08:38:18;99820.38;;;22.24;67.98
71145;BME280;58812;47.698;17.726;2022-08-21T08:41:17;99831.38;;;21.99;68.23
71145;BME280;58812;47.698;17.726;2022-08-21T08:43:55;99831.97;;;22.20;67.76
71145;BME280;58812;47.698;17.726;2022-08-21T08:46:38;99839.13;;;22.02;67.82
71145;BME280;58812;47.698;17.726;2022-08-21T08:49:25;99832.03;;;22.43;66.92
71145;BME280;58812;47.698;17.726;2022-08-21T08:54:29;99832.56;;;22.22;67.69
71145;BME280;58812;47.698;17.726;2022-08-21T08:57:01;99830.06;;;22.20;66.44
71145;BME280;58812;47.698;17.726;2022-08-21T08:59:35;99821.84;;;22.08;67.02
71145;BME280;58812;47.698;17.726;2022-08-21T09:02:04;99815.91;;;22.42;66.38
71145;BME280;58812;47.698;17.726;2022-08-21T09:04:30;99822.81;;;22.67;64.96
71145;BME280;58812;47.698;17.726;2022-08-21T09:26:21;99815.25;;;22.28;66.03
71145;BME280;58812;47.698;17.726;2022-08-21T09:28:57;99805.19;;;22.28;65.39
71145;BME280;58812;47.698;17.726;2022-08-21T09:31:29;99814.81;;;22.31;65.31
71145;BME280;58812;47.698;17.726;2022-08-21T09:34:07;99810.09;;;22.73;64.30
71145;BME280;58812;47.698;17.726;2022-08-21T09:36:47;99820.78;;;22.75;63.96
71145;BME280;58812;47.698;17.726;2022-08-21T09:39:31;99808.59;;;23.01;63.50
71145;BME280;58812;47.698;17.726;2022-08-21T09:42:03;99801.34;;;23.46;62.35
71145;BME280;58812;47.698;17.726;2022-08-21T09:44:32;99797.78;;;23.46;61.54
71145;BME280;58812;47.698;17.726;2022-08-21T09:46:58;99793.25;;;23.63;61.10
71145;BME280;58812;47.698;17.726;2022-08-21T09:49:35;99795.94;;;23.23;62.07
71145;BME280;58812;47.698;17.726;2022-08-21T09:52:04;99794.09;;;23.64;60.97
71145;BME280;58812;47.698;17.726;2022-08-21T09:54:37;99786.75;;;23.01;62.80
71145;BME280;58812;47.698;17.726;2022-08-21T09:57:19;99793.69;;;23.32;61.88
71145;BME280;58812;47.698;17.726;2022-08-21T10:00:29;99795.28;;;23.56;61.51
71145;BME280;58812;47.698;17.726;2022-08-21T10:03:08;99791.91;;;23.37;61.38
71145;BME280;58812;47.698;17.726;2022-08-21T10:05:34;99799.34;;;23.42;62.43
71145;BME280;58812;47.698;17.726;2022-08-21T10:08:00;99790.94;;;23.43;62.52
71145;BME280;58812;47.698;17.726;2022-08-21T10:10:29;99789.41;;;23.24;62.17
71145;BME280;58812;47.698;17.726;2022-08-21T10:13:11;99785.25;;;23.33;62.42
71145;BME280;58812;47.698;17.726;2022-08-21T10:18:09;99783.16;;;23.12;63.48
71145;BME280;58812;47.698;17.726;2022-08-21T10:29:03;99782.06;;;23.25;63.31
71145;BME280;58812;47.698;17.726;2022-08-21T10:42:33;99790.34;;;23.30;63.94
71145;BME280;58812;47.698;17.726;2022-08-21T10:47:48;99785.53;;;23.20;63.90
71145;BME280;58812;47.698;17.726;2022-08-21T10:50:30;99795.03;;;23.06;64.21
71145;BME280;58812;47.698;17.726;2022-08-21T10:58:23;99797.66;;;22.65;66.20
71145;BME280;58812;47.698;17.726;2022-08-21T11:01:19;99803.44;;;22.81;64.90
71145;BME280;58812;47.698;17.726;2022-08-21T11:03:51;99793.25;;;22.64;64.89
71145;BME280;58812;47.698;17.726;2022-08-21T11:06:24;99791.94;;;22.44;65.29
71145;BME280;58812;47.698;17.726;2022-08-21T11:09:04;99796.91;;;22.70;64.92
71145;BME280;58812;47.698;17.726;2022-08-21T11:11:36;99787.44;;;22.73;65.22
71145;BME280;58812;47.698;17.726;2022-08-21T11:14:08;99782.94;;;22.43;65.54
71145;BME280;58812;47.698;17.726;2022-08-21T11:16:58;99786.81;;;22.47;65.26
71145;BME280;58812;47.698;17.726;2022-08-21T11:19:31;99785.41;;;22.56;65.90
71145;BME280;58812;47.698;17.726;2022-08-21T11:22:00;99783.25;;;22.35;66.53
71145;BME280;58812;47.698;17.726;2022-08-21T11:24:54;99780.06;;;22.38;66.44
71145;BME280;58812;47.698;17.726;2022-08-21T11:27:32;99782.22;;;22.59;66.21
71145;BME280;58812;47.698;17.726;2022-08-21T11:30:00;99778.53;;;22.42;66.77
71145;BME280;58812;47.698;17.726;2022-08-21T11:35:46;99776.78;;;22.71;65.65
71145;BME280;58812;47.698;17.726;2022-08-21T11:38:32;99783.03;;;22.25;66.94
71145;BME280;58812;47.698;17.726;2022-08-21T11:43:58;99775.78;;;22.19;66.88
71145;BME280;58812;47.698;17.726;2022-08-21T11:46:56;99776.66;;;22.43;66.71
71145;BME280;58812;47.698;17.726;2022-08-21T11:50:02;99783.62;;;22.38;66.64
71145;BME280;58812;47.698;17.726;2022-08-21T11:52:33;99784.00;;;22.65;66.31
71145;BME280;58812;47.698;17.726;2022-08-21T11:55:08;99773.94;;;22.54;66.48
71145;BME280;58812;47.698;17.726;2022-08-21T12:00:47;99781.03;;;22.44;66.76
71145;BME280;58812;47.698;17.726;2022-08-21T12:03:31;99773.59;;;22.09;67.84
71145;BME280;58812;47.698;17.726;2022-08-21T12:06:05;99774.88;;;22.36;67.31
71145;BME280;58812;47.698;17.726;2022-08-21T12:08:37;99768.91;;;22.28;67.39
71145;BME280;58812;47.698;17.726;2022-08-21T12:13:37;99767.75;;;22.24;68.03
71145;BME280;58812;47.698;17.726;2022-08-21T12:16:15;99775.00;;;22.53;67.76
71145;BME280;58812;47.698;17.726;2022-08-21T12:18:42;99773.28;;;22.29;67.85
71145;BME280;58812;47.698;17.726;2022-08-21T12:21:24;99768.22;;;22.56;67.05
71145;BME280;58812;47.698;17.726;2022-08-21T12:26:33;99771.06;;;22.61;66.82
71145;BME280;58812;47.698;17.726;2022-08-21T12:29:11;99763.31;;;22.23;67.96
71145;BME280;58812;47.698;17.726;2022-08-21T12:32:41;99757.06;;;22.34;67.95
71145;BME280;58812;47.698;17.726;2022-08-21T12:34:49;99763.00;;;22.31;68.02
71145;BME280;58812;47.698;17.726;2022-08-21T12:37:50;99753.16;;;22.42;67.86
71145;BME280;58812;47.698;17.726;2022-08-21T12:42:44;99764.91;;;22.54;67.55
71145;BME280;58812;47.698;17.726;2022-08-21T12:45:20;99771.06;;;22.73;66.79
71145;BME280;58812;47.698;17.726;2022-08-21T12:47:52;99763.84;;;22.78;66.61
71145;BME280;58812;47.698;17.726;2022-08-21T12:50:26;99762.66;;;22.62;67.07
71145;BME280;58812;47.698;17.726;2022-08-21T12:52:59;99758.00;;;22.51;67.04
71145;BME280;58812;47.698;17.726;2022-08-21T12:55:32;99763.97;;;22.36;67.58
71145;BME280;58812;47.698;17.726;2022-08-21T12:57:58;99765.47;;;22.21;68.05
71145;BME280;58812;47.698;17.726;2022-08-21T13:00:25;99762.50;;;22.22;68.10
71145;BME280;58812;47.698;17.726;2022-08-21T13:02:52;99751.28;;;22.42;67.98
71145;BME280;58812;47.698;17.726;2022-08-21T13:05:28;99758.50;;;22.36;68.24
71145;BME280;58812;47.698;17.726;2022-08-21T13:07:54;99750.06;;;22.38;67.90
71145;BME280;58812;47.698;17.726;2022-08-21T13:10:27;99743.66;;;22.44;67.91
71145;BME280;58812;47.698;17.726;2022-08-21T13:12:58;99746.16;;;22.34;68.44
71145;BME280;58812;47.698;17.726;2022-08-21T13:15:32;99737.62;;;22.42;68.17
71145;BME280;58812;47.698;17.726;2022-08-21T13:18:00;99749.00;;;22.51;68.07
71145;BME280;58812;47.698;17.726;2022-08-21T13:20:38;99744.09;;;22.06;69.12
71145;BME280;58812;47.698;17.726;2022-08-21T13:23:18;99741.50;;;22.11;68.84
71145;BME280;58812;47.698;17.726;2022-08-21T13:25:44;99737.78;;;22.05;69.26
71145;BME280;58812;47.698;17.726;2022-08-21T13:28:11;99743.22;;;22.05;69.19
71145;BME280;58812;47.698;17.726;2022-08-21T13:30:43;99743.41;;;21.80;70.15
71145;BME280;58812;47.698;17.726;2022-08-21T13:33:10;99740.19;;;21.72;70.65
71145;BME280;58812;47.698;17.726;2022-08-21T13:38:15;99732.81;;;22.02;69.98
71145;BME280;58812;47.698;17.726;2022-08-21T13:40:49;99731.78;;;22.15;69.96
71145;BME280;58812;47.698;17.726;2022-08-21T13:43:18;99730.22;;;22.07;69.25
71145;BME280;58812;47.698;17.726;2022-08-21T13:45:51;99736.38;;;22.03;69.48
71145;BME280;58812;47.698;17.726;2022-08-21T13:48:17;99737.62;;;22.19;68.80
71145;BME280;58812;47.698;17.726;2022-08-21T13:50:43;99730.91;;;22.03;69.41
71145;BME280;58812;47.698;17.726;2022-08-21T13:53:28;99736.06;;;21.81;70.06
71145;BME280;58812;47.698;17.726;2022-08-21T13:55:55;99737.62;;;21.77;70.24
71145;BME280;58812;47.698;17.726;2022-08-21T13:58:30;99737.03;;;21.86;70.02
71145;BME280;58812;47.698;17.726;2022-08-21T14:00:56;99739.00;;;22.09;69.32
71145;BME280;58812;47.698;17.726;2022-08-21T14:03:43;99736.47;;;21.96;69.82
71145;BME280;58812;47.698;17.726;2022-08-21T14:06:12;99738.78;;;21.81;70.03
71145;BME280;58812;47.698;17.726;2022-08-21T14:08:39;99742.63;;;21.92;70.10
71145;BME280;58812;47.698;17.726;2022-08-21T14:11:12;99743.22;;;21.64;71.77
71145;BME280;58812;47.698;17.726;2022-08-21T14:13:41;99753.19;;;21.40;74.84